Pagrindinis puslapis
METAR-TAF:

METAR-TAF

Oro uostai :

Nansi, Prancūzija

platuma: 48-35N, ilguma: 005-58E, Aukštis: 336 m

Dabartinis oras

Ataskaita buvo paskelbta 22 minutes, ne 20:30 UTC
Vėjas 11 kt iš Rytų
Temperatūra 14°C
Drėgmė 44%
Slėgis 1021 hPa
Matomumas 10 km arba daugiau
nėra debesų žemiau 1500 m ir nėra kamuolinių lietaus debesų

METAR: LFSO 202030Z AUTO 08011KT CAVOK 14/02 Q1021

Laikas: 22:52 (20:52 UTC)

Prognozė

Ataskaita buvo paskelbta 12 valandos ir 52 minutes, ne 08:00 UTC
Prognozė galioja nuo 20 metu 09 UTC su 21 metu 09 UTC
Vėjas 10 kt iš Rytų su gūsio iki 20 kt
Matomumas 10 km arba daugiau
nėra debesų žemiau 1500 m ir nėra kamuolinių lietaus debesų
Tapsmas
nuo 20 metu 21 UTC su 20 metu 23 UTC
Vėjas 5 kt iš Rytų

TAF: LFSO 200800Z 2009/2109 08010G20KT CAVOK BECMG 2021/2023 09005KT

Orai ataskaitas ir orų prognozės (METAR, TAF).

turimą stotys yra geltonos ir raudonos taškus žemėlapyje.

Perkelti pele per norėdami pamatyti stoties vardą.

Tada spustelėkite, norėdami matyti oro stebėjimo ir prognozės.

Norėdami pakeisti žemėlapį: spustelėkite ant žalios mygtukų su juodo kryžiaus žemyn,; žalią mygtuką su brūkšneliu, jei norite nutolinti; arba žalių rodyklių gretimoms žemėlapius.


METAR-TAF: